sensor_id;sensor_type;location;lat;lon;timestamp;pressure;altitude;pressure_sealevel;temperature;humidity
47082;BME280;33066;49.296;14.470;2024-01-16T00:01:05;95723.26;;;3.64;35.56
47082;BME280;33066;49.296;14.470;2024-01-16T00:03:31;95702.46;;;3.69;35.48
47082;BME280;33066;49.296;14.470;2024-01-16T00:05:57;95711.18;;;3.37;36.52
47082;BME280;33066;49.296;14.470;2024-01-16T00:08:23;95722.90;;;3.33;36.14
47082;BME280;33066;49.296;14.470;2024-01-16T00:10:48;95722.69;;;3.05;36.42
47082;BME280;33066;49.296;14.470;2024-01-16T00:13:14;95727.49;;;3.31;36.29
47082;BME280;33066;49.296;14.470;2024-01-16T00:15:39;95732.92;;;3.53;36.47
47082;BME280;33066;49.296;14.470;2024-01-16T00:18:05;95744.04;;;3.38;36.56
47082;BME280;33066;49.296;14.470;2024-01-16T00:20:30;95735.84;;;3.24;36.65
47082;BME280;33066;49.296;14.470;2024-01-16T00:22:56;95737.29;;;3.33;36.76
47082;BME280;33066;49.296;14.470;2024-01-16T00:25:21;95742.23;;;3.66;36.67
47082;BME280;33066;49.296;14.470;2024-01-16T00:27:47;95752.39;;;3.69;36.32
47082;BME280;33066;49.296;14.470;2024-01-16T00:30:13;95758.19;;;3.73;36.39
47082;BME280;33066;49.296;14.470;2024-01-16T00:32:39;95763.35;;;3.74;36.61
47082;BME280;33066;49.296;14.470;2024-01-16T00:35:04;95768.47;;;3.91;36.45
47082;BME280;33066;49.296;14.470;2024-01-16T00:37:29;95764.14;;;3.97;36.49
47082;BME280;33066;49.296;14.470;2024-01-16T00:39:54;95769.53;;;3.75;36.15
47082;BME280;33066;49.296;14.470;2024-01-16T00:42:20;95777.57;;;4.05;36.17
47082;BME280;33066;49.296;14.470;2024-01-16T00:44:47;95784.16;;;4.15;35.70
47082;BME280;33066;49.296;14.470;2024-01-16T00:47:11;95783.57;;;4.25;35.41
47082;BME280;33066;49.296;14.470;2024-01-16T00:49:36;95789.05;;;4.01;35.42
47082;BME280;33066;49.296;14.470;2024-01-16T00:52:03;95785.34;;;4.55;35.36
47082;BME280;33066;49.296;14.470;2024-01-16T00:54:28;95793.04;;;4.48;35.22
47082;BME280;33066;49.296;14.470;2024-01-16T00:56:53;95799.15;;;4.07;35.03
47082;BME280;33066;49.296;14.470;2024-01-16T00:59:19;95802.96;;;3.95;35.19
47082;BME280;33066;49.296;14.470;2024-01-16T01:01:44;95801.84;;;4.18;35.40
47082;BME280;33066;49.296;14.470;2024-01-16T01:04:10;95811.12;;;4.11;35.22
47082;BME280;33066;49.296;14.470;2024-01-16T01:06:35;95818.94;;;3.99;35.09
47082;BME280;33066;49.296;14.470;2024-01-16T01:09:01;95820.62;;;4.07;35.40
47082;BME280;33066;49.296;14.470;2024-01-16T01:11:28;95819.17;;;3.71;36.44
47082;BME280;33066;49.296;14.470;2024-01-16T01:13:52;95820.41;;;3.46;37.22
47082;BME280;33066;49.296;14.470;2024-01-16T01:16:20;95817.13;;;3.18;37.35
47082;BME280;33066;49.296;14.470;2024-01-16T01:18:44;95816.53;;;3.59;37.17
47082;BME280;33066;49.296;14.470;2024-01-16T01:21:09;95823.87;;;3.75;36.91
47082;BME280;33066;49.296;14.470;2024-01-16T01:23:35;95830.78;;;3.98;36.36
47082;BME280;33066;49.296;14.470;2024-01-16T01:26:00;95825.43;;;4.06;36.33
47082;BME280;33066;49.296;14.470;2024-01-16T01:28:28;95827.82;;;3.73;35.49
47082;BME280;33066;49.296;14.470;2024-01-16T01:30:51;95828.32;;;3.63;35.46
47082;BME280;33066;49.296;14.470;2024-01-16T01:33:17;95833.44;;;3.53;35.32
47082;BME280;33066;49.296;14.470;2024-01-16T01:35:42;95831.71;;;3.88;35.41
47082;BME280;33066;49.296;14.470;2024-01-16T01:38:08;95832.35;;;3.76;35.21
47082;BME280;33066;49.296;14.470;2024-01-16T01:40:34;95834.86;;;3.82;35.09
47082;BME280;33066;49.296;14.470;2024-01-16T01:45:25;95834.92;;;3.77;35.32
47082;BME280;33066;49.296;14.470;2024-01-16T01:47:50;95833.50;;;3.79;35.17
47082;BME280;33066;49.296;14.470;2024-01-16T01:50:18;95853.60;;;3.92;34.97
47082;BME280;33066;49.296;14.470;2024-01-16T01:52:42;95845.85;;;3.59;35.11
47082;BME280;33066;49.296;14.470;2024-01-16T01:55:10;95851.76;;;3.62;34.78
47082;BME280;33066;49.296;14.470;2024-01-16T01:57:33;95850.35;;;3.70;34.79
47082;BME280;33066;49.296;14.470;2024-01-16T01:59:57;95850.53;;;3.73;35.07
47082;BME280;33066;49.296;14.470;2024-01-16T02:02:23;95856.77;;;3.64;34.79
47082;BME280;33066;49.296;14.470;2024-01-16T02:04:49;95864.62;;;3.69;34.61
47082;BME280;33066;49.296;14.470;2024-01-16T02:07:14;95863.93;;;3.84;34.16
47082;BME280;33066;49.296;14.470;2024-01-16T02:09:40;95853.41;;;3.92;34.08
47082;BME280;33066;49.296;14.470;2024-01-16T02:12:06;95856.15;;;3.71;33.75
47082;BME280;33066;49.296;14.470;2024-01-16T02:14:31;95858.71;;;4.01;33.54
47082;BME280;33066;49.296;14.470;2024-01-16T02:16:56;95866.71;;;4.13;33.40
47082;BME280;33066;49.296;14.470;2024-01-16T02:19:22;95878.06;;;4.31;33.24
47082;BME280;33066;49.296;14.470;2024-01-16T02:21:49;95875.91;;;4.40;33.07
47082;BME280;33066;49.296;14.470;2024-01-16T02:24:15;95879.09;;;4.11;33.15
47082;BME280;33066;49.296;14.470;2024-01-16T02:26:39;95884.94;;;4.33;33.03
47082;BME280;33066;49.296;14.470;2024-01-16T02:29:04;95884.84;;;4.36;33.04
47082;BME280;33066;49.296;14.470;2024-01-16T02:31:30;95886.68;;;4.10;33.27
47082;BME280;33066;49.296;14.470;2024-01-16T02:33:56;95887.27;;;3.84;33.09
47082;BME280;33066;49.296;14.470;2024-01-16T02:36:21;95889.60;;;3.92;33.46
47082;BME280;33066;49.296;14.470;2024-01-16T02:38:47;95894.48;;;4.15;33.43
47082;BME280;33066;49.296;14.470;2024-01-16T02:41:13;95889.60;;;4.26;33.37
47082;BME280;33066;49.296;14.470;2024-01-16T02:43:38;95894.88;;;3.96;33.45
47082;BME280;33066;49.296;14.470;2024-01-16T02:46:03;95888.82;;;4.01;33.59
47082;BME280;33066;49.296;14.470;2024-01-16T02:48:29;95890.73;;;4.24;33.46
47082;BME280;33066;49.296;14.470;2024-01-16T02:50:54;95903.50;;;3.97;33.58
47082;BME280;33066;49.296;14.470;2024-01-16T02:53:20;95894.51;;;3.90;33.51
47082;BME280;33066;49.296;14.470;2024-01-16T02:55:46;95902.53;;;4.34;33.58
47082;BME280;33066;49.296;14.470;2024-01-16T02:58:12;95908.13;;;4.25;33.40
47082;BME280;33066;49.296;14.470;2024-01-16T03:00:37;95918.63;;;3.88;33.40
47082;BME280;33066;49.296;14.470;2024-01-16T03:03:02;95910.33;;;3.94;33.67
47082;BME280;33066;49.296;14.470;2024-01-16T03:05:29;95914.18;;;3.99;33.76
47082;BME280;33066;49.296;14.470;2024-01-16T03:07:54;95928.29;;;4.19;33.73
47082;BME280;33066;49.296;14.470;2024-01-16T03:10:20;95914.21;;;4.30;33.82
47082;BME280;33066;49.296;14.470;2024-01-16T03:12:45;95925.35;;;4.29;33.64
47082;BME280;33066;49.296;14.470;2024-01-16T03:15:10;95936.88;;;4.38;33.89
47082;BME280;33066;49.296;14.470;2024-01-16T03:17:36;95935.02;;;4.10;33.98
47082;BME280;33066;49.296;14.470;2024-01-16T03:20:01;95944.27;;;4.16;33.99
47082;BME280;33066;49.296;14.470;2024-01-16T03:22:27;95939.74;;;4.15;34.08
47082;BME280;33066;49.296;14.470;2024-01-16T03:24:53;95953.75;;;4.07;34.20
47082;BME280;33066;49.296;14.470;2024-01-16T03:27:19;95955.53;;;4.15;34.18
47082;BME280;33066;49.296;14.470;2024-01-16T03:29:45;95967.32;;;3.90;34.36
47082;BME280;33066;49.296;14.470;2024-01-16T03:32:11;95965.76;;;4.21;34.45
47082;BME280;33066;49.296;14.470;2024-01-16T03:34:35;95962.09;;;4.29;34.47
47082;BME280;33066;49.296;14.470;2024-01-16T03:37:01;95955.20;;;4.29;34.43
47082;BME280;33066;49.296;14.470;2024-01-16T03:39:26;95958.80;;;4.42;34.28
47082;BME280;33066;49.296;14.470;2024-01-16T03:41:52;95951.43;;;4.33;34.51
47082;BME280;33066;49.296;14.470;2024-01-16T03:44:17;95952.17;;;4.17;34.58
47082;BME280;33066;49.296;14.470;2024-01-16T03:46:43;95966.34;;;3.99;34.83
47082;BME280;33066;49.296;14.470;2024-01-16T03:49:09;95962.24;;;4.45;34.66
47082;BME280;33066;49.296;14.470;2024-01-16T03:51:34;95963.95;;;4.50;34.57
47082;BME280;33066;49.296;14.470;2024-01-16T03:54:00;95960.88;;;4.37;34.45
47082;BME280;33066;49.296;14.470;2024-01-16T03:56:25;95968.42;;;4.28;34.37
47082;BME280;33066;49.296;14.470;2024-01-16T03:58:51;95973.96;;;4.43;34.52
47082;BME280;33066;49.296;14.470;2024-01-16T04:01:17;95970.51;;;4.25;34.40
47082;BME280;33066;49.296;14.470;2024-01-16T04:03:42;95981.79;;;4.34;34.39
47082;BME280;33066;49.296;14.470;2024-01-16T04:06:16;95978.00;;;4.19;34.44
47082;BME280;33066;49.296;14.470;2024-01-16T04:08:34;95986.14;;;4.46;34.52
47082;BME280;33066;49.296;14.470;2024-01-16T04:13:02;95977.32;;;4.54;34.16
47082;BME280;33066;49.296;14.470;2024-01-16T04:15:27;95984.44;;;4.28;34.27
47082;BME280;33066;49.296;14.470;2024-01-16T04:17:52;95994.28;;;4.36;34.34
47082;BME280;33066;49.296;14.470;2024-01-16T04:20:18;95988.29;;;4.53;34.20
47082;BME280;33066;49.296;14.470;2024-01-16T04:22:44;95994.08;;;4.52;34.08
47082;BME280;33066;49.296;14.470;2024-01-16T04:25:09;95989.33;;;4.20;34.55
47082;BME280;33066;49.296;14.470;2024-01-16T04:27:35;95999.80;;;4.39;34.33
47082;BME280;33066;49.296;14.470;2024-01-16T04:30:00;96007.07;;;4.51;34.12
47082;BME280;33066;49.296;14.470;2024-01-16T04:32:25;96012.39;;;4.70;34.01
47082;BME280;33066;49.296;14.470;2024-01-16T04:34:52;96016.68;;;4.55;33.74
47082;BME280;33066;49.296;14.470;2024-01-16T04:37:17;96018.58;;;4.60;33.75
47082;BME280;33066;49.296;14.470;2024-01-16T04:39:43;96018.59;;;4.66;33.50
47082;BME280;33066;49.296;14.470;2024-01-16T04:42:08;96023.84;;;4.82;33.36
47082;BME280;33066;49.296;14.470;2024-01-16T04:44:33;96016.00;;;4.68;33.53
47082;BME280;33066;49.296;14.470;2024-01-16T04:46:58;96021.74;;;4.41;33.53
47082;BME280;33066;49.296;14.470;2024-01-16T04:49:24;96017.13;;;4.47;33.57
47082;BME280;33066;49.296;14.470;2024-01-16T04:51:51;96019.97;;;4.48;33.51
47082;BME280;33066;49.296;14.470;2024-01-16T04:54:16;96019.77;;;4.57;33.57
47082;BME280;33066;49.296;14.470;2024-01-16T04:56:41;96021.93;;;4.44;33.41
47082;BME280;33066;49.296;14.470;2024-01-16T04:59:06;96026.45;;;4.41;33.41
47082;BME280;33066;49.296;14.470;2024-01-16T05:01:33;96027.43;;;4.66;33.23
47082;BME280;33066;49.296;14.470;2024-01-16T05:03:58;96020.57;;;4.24;33.19
47082;BME280;33066;49.296;14.470;2024-01-16T05:06:23;96026.76;;;4.53;33.30
47082;BME280;33066;49.296;14.470;2024-01-16T05:08:48;96031.32;;;4.48;33.17
47082;BME280;33066;49.296;14.470;2024-01-16T05:11:14;96031.20;;;4.44;33.33
47082;BME280;33066;49.296;14.470;2024-01-16T05:13:40;96031.70;;;4.58;33.31
47082;BME280;33066;49.296;14.470;2024-01-16T05:16:07;96032.29;;;4.51;33.14
47082;BME280;33066;49.296;14.470;2024-01-16T05:18:31;96038.23;;;4.56;33.32
47082;BME280;33066;49.296;14.470;2024-01-16T05:20:56;96048.42;;;4.28;33.44
47082;BME280;33066;49.296;14.470;2024-01-16T05:23:22;96039.26;;;4.27;33.32
47082;BME280;33066;49.296;14.470;2024-01-16T05:25:47;96048.88;;;4.10;33.41
47082;BME280;33066;49.296;14.470;2024-01-16T05:28:13;96042.01;;;4.33;33.28
47082;BME280;33066;49.296;14.470;2024-01-16T05:30:39;96030.59;;;4.42;33.14
47082;BME280;33066;49.296;14.470;2024-01-16T05:33:04;96048.31;;;4.48;33.16
47082;BME280;33066;49.296;14.470;2024-01-16T05:35:30;96055.10;;;4.06;33.20
47082;BME280;33066;49.296;14.470;2024-01-16T05:37:57;96051.48;;;4.04;33.28
47082;BME280;33066;49.296;14.470;2024-01-16T05:40:22;96055.06;;;4.45;33.43
47082;BME280;33066;49.296;14.470;2024-01-16T05:42:47;96057.77;;;4.33;33.41
47082;BME280;33066;49.296;14.470;2024-01-16T05:45:12;96058.79;;;3.89;33.32
47082;BME280;33066;49.296;14.470;2024-01-16T05:47:38;96062.36;;;3.75;33.76
47082;BME280;33066;49.296;14.470;2024-01-16T05:50:04;96069.68;;;3.75;33.80
47082;BME280;33066;49.296;14.470;2024-01-16T05:52:29;96068.79;;;3.85;33.86
47082;BME280;33066;49.296;14.470;2024-01-16T05:54:55;96070.47;;;4.34;33.55
47082;BME280;33066;49.296;14.470;2024-01-16T05:57:20;96064.32;;;4.21;33.34
47082;BME280;33066;49.296;14.470;2024-01-16T05:59:46;96067.02;;;3.95;33.53
47082;BME280;33066;49.296;14.470;2024-01-16T06:02:12;96068.53;;;4.14;33.60
47082;BME280;33066;49.296;14.470;2024-01-16T06:04:37;96096.28;;;4.15;33.65
47082;BME280;33066;49.296;14.470;2024-01-16T06:07:03;96073.74;;;3.91;33.64
47082;BME280;33066;49.296;14.470;2024-01-16T06:09:28;96062.00;;;3.97;34.01
47082;BME280;33066;49.296;14.470;2024-01-16T06:11:54;96070.11;;;3.87;33.76
47082;BME280;33066;49.296;14.470;2024-01-16T06:14:19;96075.72;;;4.19;33.74
47082;BME280;33066;49.296;14.470;2024-01-16T06:16:45;96079.25;;;3.80;33.87
47082;BME280;33066;49.296;14.470;2024-01-16T06:19:11;96085.47;;;3.92;33.70
47082;BME280;33066;49.296;14.470;2024-01-16T06:21:36;96084.72;;;3.97;33.63
47082;BME280;33066;49.296;14.470;2024-01-16T06:24:03;96088.67;;;4.29;33.57
47082;BME280;33066;49.296;14.470;2024-01-16T06:26:27;96093.65;;;4.23;33.26
47082;BME280;33066;49.296;14.470;2024-01-16T06:28:53;96096.88;;;4.25;33.12
47082;BME280;33066;49.296;14.470;2024-01-16T06:31:19;96092.73;;;4.37;32.93
47082;BME280;33066;49.296;14.470;2024-01-16T06:33:44;96099.15;;;4.72;32.55
47082;BME280;33066;49.296;14.470;2024-01-16T06:36:10;96089.41;;;4.92;32.36
47082;BME280;33066;49.296;14.470;2024-01-16T06:38:39;96084.98;;;4.64;32.37
47082;BME280;33066;49.296;14.470;2024-01-16T06:41:01;96096.04;;;4.62;32.40
47082;BME280;33066;49.296;14.470;2024-01-16T06:43:26;96099.07;;;4.50;32.39
47082;BME280;33066;49.296;14.470;2024-01-16T06:45:52;96106.03;;;4.54;32.51
47082;BME280;33066;49.296;14.470;2024-01-16T06:48:18;96107.10;;;4.38;32.62
47082;BME280;33066;49.296;14.470;2024-01-16T06:50:44;96102.25;;;4.36;32.66
47082;BME280;33066;49.296;14.470;2024-01-16T06:53:09;96108.98;;;4.65;32.36
47082;BME280;33066;49.296;14.470;2024-01-16T06:55:34;96111.07;;;4.77;32.42
47082;BME280;33066;49.296;14.470;2024-01-16T06:58:00;96124.55;;;4.33;32.24
47082;BME280;33066;49.296;14.470;2024-01-16T07:00:25;96140.19;;;4.04;32.55
47082;BME280;33066;49.296;14.470;2024-01-16T07:02:51;96136.89;;;4.27;32.53
47082;BME280;33066;49.296;14.470;2024-01-16T07:05:16;96137.01;;;4.39;32.39
47082;BME280;33066;49.296;14.470;2024-01-16T07:07:42;96143.02;;;4.33;32.26
47082;BME280;33066;49.296;14.470;2024-01-16T07:10:08;96144.64;;;4.26;32.19
47082;BME280;33066;49.296;14.470;2024-01-16T07:12:34;96151.25;;;4.33;32.01
47082;BME280;33066;49.296;14.470;2024-01-16T07:14:59;96148.92;;;4.24;31.99
47082;BME280;33066;49.296;14.470;2024-01-16T07:17:25;96149.54;;;4.43;32.16
47082;BME280;33066;49.296;14.470;2024-01-16T07:19:50;96152.37;;;4.34;32.09
47082;BME280;33066;49.296;14.470;2024-01-16T07:22:16;96155.71;;;4.22;32.09
47082;BME280;33066;49.296;14.470;2024-01-16T07:24:41;96161.58;;;4.84;32.07
47082;BME280;33066;49.296;14.470;2024-01-16T07:27:07;96167.21;;;4.47;31.92
47082;BME280;33066;49.296;14.470;2024-01-16T07:29:32;96171.48;;;4.63;31.84
47082;BME280;33066;49.296;14.470;2024-01-16T07:31:58;96173.16;;;4.69;31.91
47082;BME280;33066;49.296;14.470;2024-01-16T07:34:25;96180.87;;;5.00;31.84
47082;BME280;33066;49.296;14.470;2024-01-16T07:36:49;96181.75;;;5.05;31.62
47082;BME280;33066;49.296;14.470;2024-01-16T07:39:15;96177.95;;;5.24;31.59
47082;BME280;33066;49.296;14.470;2024-01-16T07:41:40;96180.50;;;5.25;31.30
47082;BME280;33066;49.296;14.470;2024-01-16T07:44:06;96177.67;;;5.13;31.64
47082;BME280;33066;49.296;14.470;2024-01-16T07:46:31;96178.79;;;4.68;31.69
47082;BME280;33066;49.296;14.470;2024-01-16T07:48:57;96182.89;;;4.54;31.92
47082;BME280;33066;49.296;14.470;2024-01-16T07:51:23;96184.36;;;4.64;31.84
47082;BME280;33066;49.296;14.470;2024-01-16T07:53:51;96184.59;;;4.86;31.85
47082;BME280;33066;49.296;14.470;2024-01-16T07:56:14;96185.77;;;4.95;31.73
47082;BME280;33066;49.296;14.470;2024-01-16T07:58:40;96182.71;;;4.65;31.71
47082;BME280;33066;49.296;14.470;2024-01-16T08:01:05;96187.03;;;4.88;31.72
47082;BME280;33066;49.296;14.470;2024-01-16T08:03:31;96193.62;;;4.75;31.79
47082;BME280;33066;49.296;14.470;2024-01-16T08:05:55;96194.87;;;4.83;31.88
47082;BME280;33066;49.296;14.470;2024-01-16T08:08:21;96195.17;;;4.99;32.23
47082;BME280;33066;49.296;14.470;2024-01-16T08:10:47;96192.55;;;5.10;31.73
47082;BME280;33066;49.296;14.470;2024-01-16T08:13:12;96196.17;;;4.88;31.54
47082;BME280;33066;49.296;14.470;2024-01-16T08:15:38;96198.12;;;5.11;31.35
47082;BME280;33066;49.296;14.470;2024-01-16T08:18:04;96199.36;;;5.40;31.50
47082;BME280;33066;49.296;14.470;2024-01-16T08:20:29;96199.24;;;4.97;31.38
47082;BME280;33066;49.296;14.470;2024-01-16T08:22:54;96204.64;;;4.75;31.37
47082;BME280;33066;49.296;14.470;2024-01-16T08:25:20;96216.15;;;4.53;31.58
47082;BME280;33066;49.296;14.470;2024-01-16T08:27:45;96215.05;;;4.72;31.70
47082;BME280;33066;49.296;14.470;2024-01-16T08:30:12;96220.32;;;4.86;32.02
47082;BME280;33066;49.296;14.470;2024-01-16T08:32:36;96221.73;;;4.94;31.80
47082;BME280;33066;49.296;14.470;2024-01-16T08:35:02;96220.72;;;5.14;31.98
47082;BME280;33066;49.296;14.470;2024-01-16T08:37:29;96222.71;;;5.10;31.54
47082;BME280;33066;49.296;14.470;2024-01-16T08:39:53;96225.15;;;4.97;31.78
47082;BME280;33066;49.296;14.470;2024-01-16T08:42:20;96227.85;;;5.03;32.07
47082;BME280;33066;49.296;14.470;2024-01-16T08:44:45;96234.41;;;5.05;32.12
47082;BME280;33066;49.296;14.470;2024-01-16T08:47:09;96231.55;;;5.08;32.06
47082;BME280;33066;49.296;14.470;2024-01-16T08:49:35;96228.92;;;4.82;32.06
47082;BME280;33066;49.296;14.470;2024-01-16T08:52:01;96230.67;;;5.31;31.75
47082;BME280;33066;49.296;14.470;2024-01-16T08:54:26;96231.59;;;5.13;31.86
47082;BME280;33066;49.296;14.470;2024-01-16T08:56:52;96232.52;;;5.57;31.61
47082;BME280;33066;49.296;14.470;2024-01-16T08:59:18;96233.41;;;5.09;31.71
47082;BME280;33066;49.296;14.470;2024-01-16T09:01:43;96237.93;;;5.53;31.65
47082;BME280;33066;49.296;14.470;2024-01-16T09:04:09;96236.84;;;5.26;31.58
47082;BME280;33066;49.296;14.470;2024-01-16T09:06:34;96237.41;;;5.68;31.37
47082;BME280;33066;49.296;14.470;2024-01-16T09:08:59;96239.55;;;5.41;31.39
47082;BME280;33066;49.296;14.470;2024-01-16T09:11:25;96240.76;;;5.54;31.18
47082;BME280;33066;49.296;14.470;2024-01-16T09:13:50;96245.01;;;5.56;30.94
47082;BME280;33066;49.296;14.470;2024-01-16T09:16:18;96243.82;;;5.43;31.24
47082;BME280;33066;49.296;14.470;2024-01-16T09:18:41;96247.12;;;5.37;31.35
47082;BME280;33066;49.296;14.470;2024-01-16T09:21:07;96248.11;;;5.50;31.20
47082;BME280;33066;49.296;14.470;2024-01-16T09:23:34;96245.67;;;5.59;31.12
47082;BME280;33066;49.296;14.470;2024-01-16T09:25:59;96249.80;;;5.80;31.08
47082;BME280;33066;49.296;14.470;2024-01-16T09:28:24;96249.14;;;5.71;30.98
47082;BME280;33066;49.296;14.470;2024-01-16T09:30:49;96245.93;;;5.82;31.14
47082;BME280;33066;49.296;14.470;2024-01-16T09:33:14;96245.03;;;5.66;30.99
47082;BME280;33066;49.296;14.470;2024-01-16T09:35:41;96241.85;;;5.73;30.96
47082;BME280;33066;49.296;14.470;2024-01-16T09:38:05;96241.30;;;5.41;31.03
47082;BME280;33066;49.296;14.470;2024-01-16T09:40:31;96240.34;;;5.60;30.87
47082;BME280;33066;49.296;14.470;2024-01-16T09:42:57;96238.83;;;5.71;30.76
47082;BME280;33066;49.296;14.470;2024-01-16T09:45:21;96242.98;;;5.74;30.84
47082;BME280;33066;49.296;14.470;2024-01-16T09:47:50;96244.74;;;5.89;30.68
47082;BME280;33066;49.296;14.470;2024-01-16T09:50:14;96243.32;;;5.80;30.58
47082;BME280;33066;49.296;14.470;2024-01-16T09:52:38;96241.81;;;6.02;30.63
47082;BME280;33066;49.296;14.470;2024-01-16T09:55:05;96239.28;;;6.13;30.44
47082;BME280;33066;49.296;14.470;2024-01-16T09:57:30;96237.04;;;6.05;30.22
47082;BME280;33066;49.296;14.470;2024-01-16T09:59:56;96232.67;;;5.84;30.21
47082;BME280;33066;49.296;14.470;2024-01-16T10:02:23;96229.74;;;6.29;30.31
47082;BME280;33066;49.296;14.470;2024-01-16T10:04:45;96227.47;;;6.12;30.42
47082;BME280;33066;49.296;14.470;2024-01-16T10:07:13;96221.10;;;6.11;30.28
47082;BME280;33066;49.296;14.470;2024-01-16T10:09:38;96222.60;;;6.47;30.09
47082;BME280;33066;49.296;14.470;2024-01-16T10:12:02;96219.15;;;5.92;30.11
47082;BME280;33066;49.296;14.470;2024-01-16T10:14:28;96222.86;;;6.10;30.16
47082;BME280;33066;49.296;14.470;2024-01-16T10:16:59;96223.80;;;6.50;30.26
47082;BME280;33066;49.296;14.470;2024-01-16T10:19:18;96219.81;;;6.33;29.83
47082;BME280;33066;49.296;14.470;2024-01-16T10:21:44;96222.92;;;6.41;29.85
47082;BME280;33066;49.296;14.470;2024-01-16T10:24:12;96222.43;;;5.96;30.04
47082;BME280;33066;49.296;14.470;2024-01-16T10:26:36;96224.34;;;6.53;30.36
47082;BME280;33066;49.296;14.470;2024-01-16T10:29:03;96226.58;;;6.45;30.09
47082;BME280;33066;49.296;14.470;2024-01-16T10:31:31;96228.91;;;6.26;30.14
47082;BME280;33066;49.296;14.470;2024-01-16T10:33:51;96232.07;;;6.14;29.86
47082;BME280;33066;49.296;14.470;2024-01-16T10:36:17;96230.51;;;6.14;30.14
47082;BME280;33066;49.296;14.470;2024-01-16T10:38:44;96231.44;;;6.17;30.08
47082;BME280;33066;49.296;14.470;2024-01-16T10:41:10;96229.64;;;6.08;30.16
47082;BME280;33066;49.296;14.470;2024-01-16T10:43:34;96226.49;;;6.20;30.30
47082;BME280;33066;49.296;14.470;2024-01-16T10:46:08;96227.34;;;6.11;30.31
47082;BME280;33066;49.296;14.470;2024-01-16T10:48:24;96227.22;;;6.00;30.59
47082;BME280;33066;49.296;14.470;2024-01-16T10:50:51;96223.54;;;6.19;30.30
47082;BME280;33066;49.296;14.470;2024-01-16T10:53:19;96221.12;;;6.48;30.52
47082;BME280;33066;49.296;14.470;2024-01-16T10:55:45;96221.27;;;6.47;30.11
47082;BME280;33066;49.296;14.470;2024-01-16T10:58:07;96220.23;;;6.30;30.18
47082;BME280;33066;49.296;14.470;2024-01-16T11:00:33;96217.21;;;6.63;30.10
47082;BME280;33066;49.296;14.470;2024-01-16T11:03:01;96213.44;;;6.64;30.03
47082;BME280;33066;49.296;14.470;2024-01-16T11:05:23;96209.90;;;6.70;29.55
47082;BME280;33066;49.296;14.470;2024-01-16T11:07:50;96198.38;;;6.86;29.57
47082;BME280;33066;49.296;14.470;2024-01-16T11:10:13;96190.77;;;6.77;29.28
47082;BME280;33066;49.296;14.470;2024-01-16T11:12:39;96188.18;;;6.68;29.17
47082;BME280;33066;49.296;14.470;2024-01-16T11:15:10;96190.48;;;7.05;29.06
47082;BME280;33066;49.296;14.470;2024-01-16T11:17:31;96189.06;;;6.87;28.98
47082;BME280;33066;49.296;14.470;2024-01-16T11:19:57;96187.97;;;7.10;29.06
47082;BME280;33066;49.296;14.470;2024-01-16T11:22:22;96184.68;;;7.14;28.96
47082;BME280;33066;49.296;14.470;2024-01-16T11:27:22;96184.37;;;7.40;28.50
47082;BME280;33066;49.296;14.470;2024-01-16T11:29:37;96189.33;;;7.42;28.29
47082;BME280;33066;49.296;14.470;2024-01-16T11:32:03;96192.85;;;7.20;28.36
47082;BME280;33066;49.296;14.470;2024-01-16T11:36:54;96189.37;;;6.93;28.30
47082;BME280;33066;49.296;14.470;2024-01-16T11:39:22;96189.16;;;7.04;28.25
47082;BME280;33066;49.296;14.470;2024-01-16T11:41:52;96184.06;;;7.26;28.18
47082;BME280;33066;49.296;14.470;2024-01-16T11:49:03;96183.34;;;6.98;27.73
47082;BME280;33066;49.296;14.470;2024-01-16T11:51:27;96173.55;;;7.17;27.39
47082;BME280;33066;49.296;14.470;2024-01-16T11:53:53;96178.97;;;7.19;27.15
47082;BME280;33066;49.296;14.470;2024-01-16T11:56:38;96170.48;;;7.14;27.35
47082;BME280;33066;49.296;14.470;2024-01-16T11:58:50;96175.99;;;7.29;26.87
47082;BME280;33066;49.296;14.470;2024-01-16T12:01:10;96172.53;;;7.31;27.09
47082;BME280;33066;49.296;14.470;2024-01-16T12:03:35;96177.44;;;7.21;26.72
47082;BME280;33066;49.296;14.470;2024-01-16T12:06:01;96185.95;;;7.24;27.11
47082;BME280;33066;49.296;14.470;2024-01-16T12:08:26;96174.96;;;7.24;27.50
47082;BME280;33066;49.296;14.470;2024-01-16T12:10:51;96172.81;;;7.43;27.15
47082;BME280;33066;49.296;14.470;2024-01-16T12:13:17;96173.43;;;7.50;27.05
47082;BME280;33066;49.296;14.470;2024-01-16T12:15:42;96171.16;;;7.61;26.72
47082;BME280;33066;49.296;14.470;2024-01-16T12:18:08;96173.20;;;7.57;26.78
47082;BME280;33066;49.296;14.470;2024-01-16T12:20:36;96174.20;;;7.32;26.67
47082;BME280;33066;49.296;14.470;2024-01-16T12:23:00;96173.30;;;7.48;26.72
47082;BME280;33066;49.296;14.470;2024-01-16T12:25:24;96175.31;;;7.40;26.84
47082;BME280;33066;49.296;14.470;2024-01-16T12:27:55;96176.53;;;7.75;26.49
47082;BME280;33066;49.296;14.470;2024-01-16T12:30:15;96173.95;;;7.88;26.64
47082;BME280;33066;49.296;14.470;2024-01-16T12:32:40;96178.56;;;8.13;26.49
47082;BME280;33066;49.296;14.470;2024-01-16T12:35:05;96178.10;;;8.18;26.50
47082;BME280;33066;49.296;14.470;2024-01-16T12:37:31;96180.45;;;8.01;26.38
47082;BME280;33066;49.296;14.470;2024-01-16T12:39:56;96183.79;;;7.73;26.99
47082;BME280;33066;49.296;14.470;2024-01-16T12:42:22;96185.28;;;7.45;27.10
47082;BME280;33066;49.296;14.470;2024-01-16T12:44:47;96186.60;;;7.54;27.19
47082;BME280;33066;49.296;14.470;2024-01-16T12:47:15;96182.95;;;7.56;27.41
47082;BME280;33066;49.296;14.470;2024-01-16T12:49:40;96182.72;;;7.39;27.11
47082;BME280;33066;49.296;14.470;2024-01-16T12:52:15;96183.03;;;7.29;27.46
47082;BME280;33066;49.296;14.470;2024-01-16T12:54:29;96186.09;;;7.02;27.75
47082;BME280;33066;49.296;14.470;2024-01-16T12:56:59;96184.28;;;7.40;27.79
47082;BME280;33066;49.296;14.470;2024-01-16T12:59:21;96188.07;;;7.55;27.97
47082;BME280;33066;49.296;14.470;2024-01-16T13:01:46;96183.89;;;7.53;27.64
47082;BME280;33066;49.296;14.470;2024-01-16T13:04:12;96182.89;;;7.38;27.22